Terminal Aerodrome Forecast
Issued by NWS

Home | Current Version | Previous Version | Text Only | Print | Product List | Glossary On
Versions: 1 2 3 4 5 6 7 8 9 10 11 12 13 14 15
374
FTUS45 KTFX 270520
TAFGTF
TAF
KGTF 270520Z 2706/2806 22007KT P6SM SCT070 BKN110
      TEMPO 2708/2711 -SHRA BKN050
     FM271300 24013KT P6SM SCT050 BKN150
     FM271800 28013KT P6SM SCT050 BKN110 PROB30 2719/2722 -TSRA
      BKN050CB
     FM272300 30010KT P6SM FEW060 SCT200=

USA.gov is the U.S. government's official web portal to all federal, state and local government web resources and services.